createdAt,value
2018-01-25T00:00:58.758Z,2.70
2018-01-25T00:01:58.787Z,2.50
2018-01-25T00:02:58.816Z,2.60
2018-01-25T00:03:58.845Z,2.70
2018-01-25T00:04:58.876Z,2.60
2018-01-25T00:05:58.905Z,2.80
2018-01-25T00:06:58.933Z,2.90
2018-01-25T00:07:58.964Z,2.70
2018-01-25T00:08:58.993Z,2.80
2018-01-25T00:09:59.025Z,2.70
2018-01-25T00:10:59.053Z,3.40
2018-01-25T00:11:59.083Z,2.90
2018-01-25T00:12:59.113Z,2.60
2018-01-25T00:13:59.142Z,2.50
2018-01-25T00:14:59.213Z,2.80
2018-01-25T00:15:59.200Z,2.50
2018-01-25T00:16:59.228Z,2.80
2018-01-25T00:17:59.259Z,3.00
2018-01-25T00:18:59.288Z,2.80
2018-01-25T00:19:59.319Z,2.90
2018-01-25T00:20:59.348Z,2.60
2018-01-25T00:21:59.377Z,2.80
2018-01-25T00:22:59.407Z,2.70
2018-01-25T00:23:59.439Z,2.60
2018-01-25T00:24:59.465Z,2.70
2018-01-25T00:25:59.494Z,2.90
2018-01-25T00:26:59.524Z,2.60
2018-01-25T00:27:59.552Z,2.90
2018-01-25T00:28:59.583Z,2.60
2018-01-25T00:29:59.613Z,2.80
2018-01-25T00:30:59.642Z,3.10
2018-01-25T00:31:59.670Z,2.60
2018-01-25T00:32:59.699Z,3.20
2018-01-25T00:33:59.730Z,3.30
2018-01-25T00:34:59.760Z,4.40
2018-01-25T00:35:59.789Z,5.00
2018-01-25T00:36:59.818Z,5.60
2018-01-25T00:37:59.848Z,5.80
2018-01-25T00:38:59.876Z,3.80
2018-01-25T00:39:59.906Z,3.00
2018-01-25T00:40:59.939Z,3.70
2018-01-25T00:41:59.964Z,3.20
2018-01-25T00:42:59.999Z,3.40
2018-01-25T00:44:00.025Z,3.30
2018-01-25T00:45:00.054Z,3.00
2018-01-25T00:46:00.082Z,3.20
2018-01-25T00:47:00.131Z,3.60
2018-01-25T00:48:00.140Z,2.90
2018-01-25T00:49:00.169Z,2.80
2018-01-25T00:50:00.200Z,2.80
2018-01-25T00:51:00.228Z,3.00
2018-01-25T00:52:00.257Z,2.90
2018-01-25T00:53:00.287Z,2.60
2018-01-25T00:54:00.316Z,3.40
2018-01-25T00:55:00.346Z,2.80
2018-01-25T00:56:00.373Z,2.60
2018-01-25T00:57:00.402Z,2.60
2018-01-25T00:58:00.433Z,2.60
2018-01-25T00:59:00.461Z,3.20
2018-01-25T01:00:00.491Z,3.20
2018-01-25T01:01:00.520Z,3.10
2018-01-25T01:02:00.549Z,2.80
2018-01-25T01:03:00.579Z,2.80
2018-01-25T01:04:00.605Z,3.10
2018-01-25T01:05:00.637Z,2.90
2018-01-25T01:06:00.666Z,3.30
2018-01-25T01:07:00.695Z,2.90
2018-01-25T01:08:00.724Z,3.00
2018-01-25T01:09:00.752Z,3.00
2018-01-25T01:10:00.782Z,2.60
2018-01-25T01:11:00.810Z,3.20
2018-01-25T01:12:00.839Z,3.30
2018-01-25T01:13:00.869Z,3.40
2018-01-25T01:14:00.897Z,3.40
2018-01-25T01:15:00.927Z,3.80
2018-01-25T01:16:00.955Z,3.50
2018-01-25T01:17:00.984Z,3.40
2018-01-25T01:18:01.016Z,3.20
2018-01-25T01:19:01.043Z,3.40
2018-01-25T01:20:01.071Z,3.70
2018-01-25T01:21:01.100Z,3.60
2018-01-25T01:22:01.130Z,3.30
2018-01-25T01:23:01.158Z,3.50
2018-01-25T01:24:01.187Z,3.40
2018-01-25T01:25:01.216Z,3.60
2018-01-25T01:26:01.246Z,3.30
2018-01-25T01:27:01.274Z,3.60
2018-01-25T01:28:01.303Z,3.30
2018-01-25T01:29:01.332Z,3.10
2018-01-25T01:30:01.360Z,2.70
2018-01-25T01:31:01.389Z,3.50
2018-01-25T01:32:01.423Z,4.00
2018-01-25T01:33:01.447Z,3.50
2018-01-25T01:34:01.476Z,3.10
2018-01-25T01:35:01.505Z,3.50
2018-01-25T01:36:01.534Z,3.90
2018-01-25T01:37:01.562Z,3.60
2018-01-25T01:38:01.591Z,3.40
2018-01-25T01:39:01.620Z,3.50
2018-01-25T01:40:01.649Z,3.30
2018-01-25T01:41:01.677Z,3.70
2018-01-25T01:42:01.707Z,4.10
2018-01-25T01:43:01.735Z,3.10
2018-01-25T01:44:01.762Z,3.00
2018-01-25T01:45:01.794Z,3.60
2018-01-25T01:46:01.825Z,3.20
2018-01-25T01:47:01.850Z,3.70
2018-01-25T01:48:01.877Z,3.50
2018-01-25T01:49:01.906Z,3.50
2018-01-25T01:50:01.935Z,3.50
2018-01-25T01:51:01.965Z,3.80
2018-01-25T01:52:01.992Z,3.40
2018-01-25T01:53:02.021Z,3.50
2018-01-25T01:54:02.049Z,3.30
2018-01-25T01:55:02.079Z,3.70
2018-01-25T01:56:02.107Z,3.60
2018-01-25T01:57:02.136Z,3.40
2018-01-25T01:58:02.165Z,3.70
2018-01-25T01:59:02.193Z,3.50
2018-01-25T02:00:02.221Z,3.20
2018-01-25T02:01:02.250Z,3.60
2018-01-25T02:02:02.279Z,4.30
2018-01-25T02:03:02.309Z,5.00
2018-01-25T02:04:02.335Z,4.50
2018-01-25T02:05:02.364Z,4.20
2018-01-25T02:06:02.394Z,4.10
2018-01-25T02:07:02.422Z,5.90
2018-01-25T02:08:02.450Z,7.10
2018-01-25T02:09:02.480Z,7.10
2018-01-25T02:10:02.508Z,6.20
2018-01-25T02:11:02.536Z,5.10
2018-01-25T02:12:02.564Z,5.40
2018-01-25T02:13:02.594Z,4.60
2018-01-25T02:14:02.623Z,6.20
2018-01-25T02:15:02.651Z,6.80
2018-01-25T02:16:02.678Z,8.40
2018-01-25T02:17:02.707Z,6.00
2018-01-25T02:18:02.737Z,6.00
2018-01-25T02:19:02.766Z,5.80
2018-01-25T02:20:02.794Z,5.40
2018-01-25T02:21:02.823Z,4.40
2018-01-25T02:22:02.852Z,3.80
2018-01-25T02:23:02.880Z,4.40
2018-01-25T02:24:02.908Z,5.30
2018-01-25T02:25:02.937Z,6.00
2018-01-25T02:26:02.965Z,5.70
2018-01-25T02:27:02.995Z,5.70
2018-01-25T02:28:03.021Z,5.10
2018-01-25T02:29:03.054Z,4.60
2018-01-25T02:30:03.080Z,4.70
2018-01-25T02:31:03.109Z,5.00
2018-01-25T02:32:03.140Z,7.40
2018-01-25T02:33:03.165Z,6.80
2018-01-25T02:34:03.194Z,6.00
2018-01-25T02:35:03.223Z,11.80
2018-01-25T02:36:03.250Z,15.80
2018-01-25T02:37:03.280Z,16.30
2018-01-25T02:38:03.310Z,7.10
2018-01-25T02:39:03.337Z,5.80
2018-01-25T02:40:03.364Z,8.80
2018-01-25T02:41:03.393Z,7.60
2018-01-25T02:42:03.422Z,6.30
2018-01-25T02:43:03.451Z,6.80
2018-01-25T02:44:03.479Z,10.50
2018-01-25T02:45:03.507Z,10.40
2018-01-25T02:46:03.534Z,7.40
2018-01-25T02:47:03.564Z,6.60
2018-01-25T02:48:03.592Z,4.60
2018-01-25T02:49:03.620Z,5.30
2018-01-25T02:50:03.654Z,5.10
2018-01-25T02:51:03.678Z,5.60
2018-01-25T02:52:03.705Z,5.50
2018-01-25T02:53:03.734Z,5.10
2018-01-25T02:54:03.768Z,4.60
2018-01-25T02:55:03.846Z,4.60
2018-01-25T02:56:03.819Z,5.40
2018-01-25T02:57:03.847Z,5.00
2018-01-25T02:58:03.875Z,4.70
2018-01-25T02:59:03.910Z,4.60
2018-01-25T03:00:03.931Z,5.30
2018-01-25T03:01:03.960Z,6.50
2018-01-25T03:02:03.989Z,6.70
2018-01-25T03:03:04.019Z,7.10
2018-01-25T03:04:04.046Z,5.30
2018-01-25T03:05:04.073Z,5.30
2018-01-25T03:06:04.104Z,5.60
2018-01-25T03:07:04.134Z,6.50
2018-01-25T03:08:04.160Z,7.70
2018-01-25T03:09:04.189Z,7.60
2018-01-25T03:10:04.217Z,8.20
2018-01-25T03:11:08.803Z,8.30
2018-01-25T03:12:04.272Z,6.40
2018-01-25T03:13:04.309Z,5.30
2018-01-25T03:14:04.330Z,6.50
2018-01-25T03:15:04.359Z,7.10
2018-01-25T03:16:04.385Z,6.10
2018-01-25T03:17:04.417Z,5.20
2018-01-25T03:18:04.443Z,4.70
2018-01-25T03:19:04.472Z,4.90
2018-01-25T03:20:04.499Z,5.10
2018-01-25T03:21:04.529Z,6.70
2018-01-25T03:22:04.557Z,7.20
2018-01-25T03:23:04.587Z,5.90
2018-01-25T03:24:04.612Z,6.30
2018-01-25T03:25:04.640Z,5.80
2018-01-25T03:26:04.670Z,5.80
2018-01-25T03:27:04.698Z,6.90
2018-01-25T03:28:04.726Z,6.00
2018-01-25T03:29:04.753Z,5.20
2018-01-25T03:30:04.784Z,5.50
2018-01-25T03:31:04.811Z,6.10
2018-01-25T03:32:04.839Z,6.00
2018-01-25T03:33:04.867Z,5.50
2018-01-25T03:34:04.895Z,7.20
2018-01-25T03:35:04.925Z,7.10
2018-01-25T03:36:04.952Z,7.00
2018-01-25T03:37:04.981Z,8.20
2018-01-25T03:38:05.009Z,9.60
2018-01-25T03:39:05.037Z,12.80
2018-01-25T03:40:05.104Z,10.70
2018-01-25T03:41:05.095Z,10.40
2018-01-25T03:42:05.122Z,7.60
2018-01-25T03:43:05.150Z,6.80
2018-01-25T03:44:05.178Z,7.20
2018-01-25T03:45:05.207Z,5.40
2018-01-25T03:46:05.236Z,6.00
2018-01-25T03:47:05.265Z,6.20
2018-01-25T03:48:05.292Z,5.60
2018-01-25T03:49:05.320Z,6.90
2018-01-25T03:50:05.350Z,7.30
2018-01-25T03:51:05.378Z,6.20
2018-01-25T03:52:05.405Z,6.30
2018-01-25T03:53:05.433Z,5.70
2018-01-25T03:54:05.462Z,6.30
2018-01-25T03:55:05.490Z,5.30
2018-01-25T03:56:05.517Z,6.30
2018-01-25T03:57:05.545Z,5.20
2018-01-25T03:58:05.574Z,4.80
2018-01-25T03:59:05.603Z,5.20
2018-01-25T04:00:05.630Z,5.00
2018-01-25T04:01:05.661Z,4.80
2018-01-25T04:02:05.692Z,5.30
2018-01-25T04:03:05.719Z,5.20
2018-01-25T04:04:05.744Z,5.20
2018-01-25T04:05:05.773Z,4.90
2018-01-25T04:06:05.802Z,5.30
2018-01-25T04:07:05.830Z,4.60
2018-01-25T04:08:05.857Z,4.30
2018-01-25T04:09:05.886Z,4.20
2018-01-25T04:10:05.916Z,4.50
2018-01-25T04:11:05.944Z,4.60
2018-01-25T04:12:05.971Z,4.60
2018-01-25T04:13:06.002Z,4.30
2018-01-25T04:14:06.042Z,4.10
2018-01-25T04:15:06.058Z,4.90
2018-01-25T04:16:06.089Z,4.10
2018-01-25T04:17:06.115Z,4.60
2018-01-25T04:18:06.144Z,4.30
2018-01-25T04:19:06.171Z,4.90
2018-01-25T04:20:06.199Z,4.40
2018-01-25T04:21:06.228Z,4.70
2018-01-25T04:22:06.255Z,4.70
2018-01-25T04:23:06.285Z,4.30
2018-01-25T04:24:06.313Z,4.60
2018-01-25T04:25:06.342Z,4.50
2018-01-25T04:26:06.369Z,4.80
2018-01-25T04:27:06.398Z,4.80
2018-01-25T04:28:06.427Z,4.90
2018-01-25T04:29:06.456Z,4.90
2018-01-25T04:30:06.484Z,4.60
2018-01-25T04:31:06.511Z,4.40
2018-01-25T04:32:06.541Z,4.30
2018-01-25T04:33:06.569Z,4.70
2018-01-25T04:34:06.597Z,4.40
2018-01-25T04:35:06.626Z,5.00
2018-01-25T04:36:06.655Z,4.60
2018-01-25T04:37:06.684Z,4.90
2018-01-25T04:38:06.716Z,4.60
2018-01-25T04:39:06.741Z,4.70
2018-01-25T04:40:06.770Z,4.40
2018-01-25T04:41:06.798Z,4.60
2018-01-25T04:42:06.826Z,5.20
2018-01-25T04:43:06.854Z,4.70
2018-01-25T04:44:06.882Z,5.40
2018-01-25T04:45:06.912Z,4.40
2018-01-25T04:46:06.940Z,4.80
2018-01-25T04:47:06.968Z,5.20
2018-01-25T04:48:06.997Z,5.00
2018-01-25T04:49:07.027Z,5.20
2018-01-25T04:50:07.057Z,4.80
2018-01-25T04:51:07.084Z,5.10
2018-01-25T04:52:07.112Z,5.30
2018-01-25T04:53:07.141Z,5.00
2018-01-25T04:54:07.169Z,4.40
2018-01-25T04:55:07.198Z,4.80
2018-01-25T04:56:07.226Z,4.80
2018-01-25T04:57:07.262Z,4.60
2018-01-25T04:58:07.285Z,4.70
2018-01-25T04:59:07.314Z,4.80
2018-01-25T05:00:07.342Z,4.70
2018-01-25T05:01:07.372Z,4.50
2018-01-25T05:02:07.400Z,4.10
2018-01-25T05:03:07.429Z,4.60
2018-01-25T05:04:07.457Z,4.30
2018-01-25T05:05:07.485Z,4.40
2018-01-25T05:06:07.515Z,4.30
2018-01-25T05:07:07.543Z,4.40
2018-01-25T05:08:07.572Z,4.30
2018-01-25T05:09:07.602Z,4.50
2018-01-25T05:10:07.631Z,4.30
2018-01-25T05:11:07.660Z,4.50
2018-01-25T05:12:07.689Z,4.30
2018-01-25T05:13:07.718Z,4.70
2018-01-25T05:14:07.747Z,4.40
2018-01-25T05:15:07.776Z,4.20
2018-01-25T05:16:07.805Z,4.40
2018-01-25T05:17:07.834Z,4.10
2018-01-25T05:18:07.863Z,4.20
2018-01-25T05:19:07.893Z,4.40
2018-01-25T05:20:07.921Z,4.20
2018-01-25T05:21:07.950Z,4.40
2018-01-25T05:22:07.978Z,4.70
2018-01-25T05:23:08.008Z,3.90
2018-01-25T05:24:08.036Z,4.30
2018-01-25T05:25:08.066Z,4.10
2018-01-25T05:26:08.096Z,4.40
2018-01-25T05:27:08.126Z,4.10
2018-01-25T05:28:08.154Z,4.80
2018-01-25T05:29:08.182Z,3.80
2018-01-25T05:30:08.212Z,4.10
2018-01-25T05:31:08.241Z,4.70
2018-01-25T05:32:08.269Z,4.20
2018-01-25T05:33:08.300Z,4.10
2018-01-25T05:34:08.327Z,3.70
2018-01-25T05:35:08.358Z,3.80
2018-01-25T05:36:08.387Z,4.10
2018-01-25T05:37:08.416Z,4.20
2018-01-25T05:38:08.446Z,4.50
2018-01-25T05:39:08.475Z,4.10
2018-01-25T05:40:08.502Z,4.10
2018-01-25T05:41:08.533Z,4.90
2018-01-25T05:42:08.563Z,4.10
2018-01-25T05:43:08.592Z,3.80
2018-01-25T05:44:08.621Z,4.00
2018-01-25T05:45:08.648Z,4.00
2018-01-25T05:46:08.678Z,4.10
2018-01-25T05:47:08.707Z,4.00
2018-01-25T05:48:08.736Z,4.10
2018-01-25T05:49:08.765Z,4.60
2018-01-25T05:50:08.796Z,4.70
2018-01-25T05:51:08.825Z,4.20
2018-01-25T05:52:08.854Z,3.60
2018-01-25T05:53:08.884Z,4.00
2018-01-25T05:54:08.912Z,5.00
2018-01-25T05:55:08.941Z,3.70
2018-01-25T05:56:08.969Z,4.40
2018-01-25T05:57:08.998Z,4.10
2018-01-25T05:58:09.029Z,4.30
2018-01-25T05:59:09.058Z,4.50
2018-01-25T06:00:09.088Z,3.90
2018-01-25T06:01:09.116Z,4.30
2018-01-25T06:02:09.145Z,4.30
2018-01-25T06:03:09.174Z,4.10
2018-01-25T06:04:09.202Z,3.80
2018-01-25T06:05:09.234Z,4.10
2018-01-25T06:06:09.261Z,3.80
2018-01-25T06:07:09.291Z,4.20
2018-01-25T06:08:09.319Z,4.20
2018-01-25T06:09:09.349Z,4.50
2018-01-25T06:10:09.378Z,4.80
2018-01-25T06:11:09.407Z,3.90
2018-01-25T06:12:09.437Z,4.00
2018-01-25T06:13:09.465Z,4.20
2018-01-25T06:14:09.497Z,3.80
2018-01-25T06:15:09.523Z,4.30
2018-01-25T06:16:09.553Z,4.10
2018-01-25T06:17:09.586Z,4.40
2018-01-25T06:18:09.611Z,3.80
2018-01-25T06:19:09.639Z,3.50
2018-01-25T06:20:09.668Z,4.50
2018-01-25T06:21:09.697Z,4.10
2018-01-25T06:22:09.728Z,3.90
2018-01-25T06:23:09.758Z,4.00
2018-01-25T06:24:09.785Z,4.00
2018-01-25T06:25:09.815Z,4.10
2018-01-25T06:26:09.843Z,4.10
2018-01-25T06:27:09.873Z,4.30
2018-01-25T06:28:09.902Z,3.90
2018-01-25T06:29:09.930Z,4.00
2018-01-25T06:30:09.961Z,4.20
2018-01-25T06:31:09.990Z,4.30
2018-01-25T06:32:10.018Z,4.30
2018-01-25T06:33:10.046Z,4.20
2018-01-25T06:34:10.077Z,4.10
2018-01-25T06:35:10.106Z,4.30
2018-01-25T06:36:10.134Z,4.00
2018-01-25T06:37:10.163Z,3.80
2018-01-25T06:38:10.192Z,4.70
2018-01-25T06:39:10.222Z,4.30
2018-01-25T06:40:10.251Z,4.20
2018-01-25T06:41:10.282Z,4.40
2018-01-25T06:42:10.309Z,4.10
2018-01-25T06:43:10.338Z,5.00
2018-01-25T06:44:10.366Z,5.00
2018-01-25T06:45:10.395Z,5.10
2018-01-25T06:46:10.426Z,4.60
2018-01-25T06:47:10.453Z,4.80
2018-01-25T06:48:10.482Z,4.90
2018-01-25T06:49:10.512Z,4.90
2018-01-25T06:50:10.539Z,4.40
2018-01-25T06:51:10.569Z,4.00
2018-01-25T06:52:10.598Z,5.00
2018-01-25T06:53:10.627Z,13.70
2018-01-25T06:54:10.657Z,8.20
2018-01-25T06:55:10.685Z,5.00
2018-01-25T06:56:10.713Z,4.90
2018-01-25T06:57:10.742Z,4.70
2018-01-25T06:58:10.775Z,4.80
2018-01-25T06:59:10.802Z,4.30
2018-01-25T07:00:10.845Z,4.70
2018-01-25T07:01:10.859Z,4.20
2018-01-25T07:02:10.913Z,3.70
2018-01-25T07:03:10.917Z,4.20
2018-01-25T07:04:10.946Z,4.70
2018-01-25T07:05:10.974Z,4.10
2018-01-25T07:06:11.002Z,3.80
2018-01-25T07:07:11.032Z,4.50
2018-01-25T07:08:11.061Z,4.40
2018-01-25T07:09:11.091Z,4.30
2018-01-25T07:10:11.119Z,4.10
2018-01-25T07:11:11.152Z,4.00
2018-01-25T07:12:11.183Z,4.10
2018-01-25T07:13:11.210Z,4.40
2018-01-25T07:14:11.234Z,4.20
2018-01-25T07:15:11.265Z,4.10
2018-01-25T07:16:11.292Z,3.80
2018-01-25T07:17:11.321Z,4.10
2018-01-25T07:18:11.352Z,4.20
2018-01-25T07:19:11.380Z,4.70
2018-01-25T07:20:11.410Z,4.70
2018-01-25T07:21:11.438Z,4.60
2018-01-25T07:22:11.466Z,4.50
2018-01-25T07:23:11.496Z,4.30
2018-01-25T07:24:11.523Z,4.40
2018-01-25T07:25:11.553Z,4.80
2018-01-25T07:26:11.583Z,4.60
2018-01-25T07:27:11.612Z,4.40
2018-01-25T07:28:11.640Z,4.60
2018-01-25T07:29:11.670Z,4.20
2018-01-25T07:30:11.699Z,4.20
2018-01-25T07:31:11.728Z,4.70
2018-01-25T07:32:11.757Z,3.70
2018-01-25T07:33:11.786Z,4.30
2018-01-25T07:34:11.814Z,4.50
2018-01-25T07:35:11.846Z,5.40
2018-01-25T07:36:11.873Z,4.60
2018-01-25T07:37:11.902Z,4.80
2018-01-25T07:38:11.933Z,4.80
2018-01-25T07:39:11.961Z,4.70
2018-01-25T07:40:11.993Z,4.50
2018-01-25T07:41:12.020Z,4.40
2018-01-25T07:42:12.049Z,5.10
2018-01-25T07:43:12.078Z,4.70
2018-01-25T07:44:12.107Z,5.00
2018-01-25T07:45:12.137Z,5.70
2018-01-25T07:46:12.166Z,4.20
2018-01-25T07:47:12.195Z,4.40
2018-01-25T07:48:12.224Z,4.30
2018-01-25T07:49:12.253Z,5.10
2018-01-25T07:50:12.283Z,5.00
2018-01-25T07:51:12.368Z,4.60
2018-01-25T07:52:12.341Z,4.60
2018-01-25T07:53:12.371Z,4.20
2018-01-25T07:54:12.401Z,4.00
2018-01-25T07:55:12.430Z,4.30
2018-01-25T07:56:12.460Z,3.90
2018-01-25T07:57:12.491Z,4.80
2018-01-25T07:58:12.520Z,4.60
2018-01-25T07:59:12.550Z,4.90
2018-01-25T08:00:12.581Z,4.60
2018-01-25T08:01:12.609Z,4.30
2018-01-25T08:02:12.641Z,4.20
2018-01-25T08:03:12.668Z,4.20
2018-01-25T08:04:12.698Z,4.10
2018-01-25T08:05:12.728Z,4.70
2018-01-25T08:06:12.759Z,4.60
2018-01-25T08:07:12.788Z,4.50
2018-01-25T08:08:12.818Z,3.90
2018-01-25T08:09:12.849Z,4.30
2018-01-25T08:10:12.878Z,4.20
2018-01-25T08:11:12.907Z,3.60
2018-01-25T08:12:12.937Z,4.20
2018-01-25T08:13:12.967Z,3.80
2018-01-25T08:14:12.998Z,4.80
2018-01-25T08:15:13.029Z,4.10
2018-01-25T08:16:13.060Z,4.40
2018-01-25T08:17:13.095Z,4.60
2018-01-25T08:18:13.118Z,4.60
2018-01-25T08:19:13.150Z,4.20
2018-01-25T08:20:13.179Z,4.20
2018-01-25T08:21:13.211Z,4.70
2018-01-25T08:22:13.241Z,4.50
2018-01-25T08:23:13.272Z,4.60
2018-01-25T08:24:13.300Z,4.40
2018-01-25T08:25:13.332Z,4.40
2018-01-25T08:26:13.362Z,4.30
2018-01-25T08:27:13.393Z,4.20
2018-01-25T08:28:13.422Z,4.20
2018-01-25T08:29:13.454Z,4.60
2018-01-25T08:30:13.488Z,4.10
2018-01-25T08:31:13.514Z,4.30
2018-01-25T08:32:13.546Z,4.70
2018-01-25T08:33:13.577Z,4.20
2018-01-25T08:34:13.607Z,4.50
2018-01-25T08:35:13.639Z,4.50
2018-01-25T08:36:13.668Z,4.40
2018-01-25T08:37:13.699Z,4.40
2018-01-25T08:38:13.732Z,4.20
2018-01-25T08:39:13.764Z,4.50
2018-01-25T08:40:13.794Z,4.40
2018-01-25T08:41:13.825Z,4.30
2018-01-25T08:42:13.856Z,4.10
2018-01-25T08:43:13.888Z,4.30
2018-01-25T08:44:13.919Z,4.30
2018-01-25T08:45:13.952Z,4.40
2018-01-25T08:46:13.984Z,4.60
2018-01-25T08:47:14.014Z,4.40
2018-01-25T08:48:14.043Z,3.70
2018-01-25T08:49:14.075Z,4.60
2018-01-25T08:50:14.108Z,4.20
2018-01-25T08:51:14.148Z,4.90
2018-01-25T08:52:14.172Z,4.40
2018-01-25T08:53:14.204Z,4.60
2018-01-25T08:54:14.237Z,4.20
2018-01-25T08:55:14.270Z,4.00
2018-01-25T08:56:14.302Z,3.40
2018-01-25T08:57:14.335Z,4.10
2018-01-25T08:58:14.366Z,4.60
2018-01-25T08:59:14.400Z,4.40
2018-01-25T09:00:14.434Z,3.50
2018-01-25T09:01:14.467Z,3.80
2018-01-25T09:02:14.500Z,3.80
2018-01-25T09:03:14.535Z,4.20
2018-01-25T09:04:14.568Z,4.30
2018-01-25T09:05:14.602Z,4.30
2018-01-25T09:06:14.635Z,4.10
2018-01-25T09:07:14.669Z,4.00
2018-01-25T09:08:14.709Z,4.10
2018-01-25T09:09:14.735Z,3.90
2018-01-25T09:10:14.773Z,4.00
2018-01-25T09:11:14.804Z,3.50
2018-01-25T09:12:14.837Z,4.10
2018-01-25T09:13:14.872Z,4.20
2018-01-25T09:14:14.906Z,4.10
2018-01-25T09:15:14.941Z,4.20
2018-01-25T09:16:14.973Z,4.60
2018-01-25T09:17:15.009Z,4.70
2018-01-25T09:18:15.042Z,4.50
2018-01-25T09:19:15.078Z,3.70
2018-01-25T09:20:15.111Z,3.90
2018-01-25T09:21:15.147Z,3.80
2018-01-25T09:22:15.183Z,3.60
2018-01-25T09:23:15.216Z,4.40
2018-01-25T09:24:15.251Z,3.50
2018-01-25T09:25:15.287Z,3.90
2018-01-25T09:26:15.324Z,4.30
2018-01-25T09:27:15.359Z,4.60
2018-01-25T09:28:15.393Z,4.30
2018-01-25T09:29:15.431Z,4.70
2018-01-25T09:30:15.468Z,3.80
2018-01-25T09:31:15.505Z,4.10
2018-01-25T09:32:15.540Z,4.20
2018-01-25T09:33:15.579Z,4.00
2018-01-25T09:34:15.616Z,4.10
2018-01-25T09:35:15.654Z,4.20
2018-01-25T09:36:15.689Z,4.60
2018-01-25T09:37:15.728Z,3.70
2018-01-25T09:38:15.767Z,3.90
2018-01-25T09:39:15.804Z,4.50
2018-01-25T09:40:15.841Z,4.40
2018-01-25T09:41:15.921Z,4.70
2018-01-25T09:42:15.918Z,4.50
2018-01-25T09:43:15.963Z,4.40
2018-01-25T09:44:15.994Z,4.40
2018-01-25T09:45:16.035Z,4.20
2018-01-25T09:46:16.072Z,4.10
2018-01-25T09:47:16.133Z,3.80
2018-01-25T09:48:16.148Z,4.20
2018-01-25T09:49:16.187Z,3.80
2018-01-25T09:50:16.228Z,3.90
2018-01-25T09:51:16.264Z,4.30
2018-01-25T09:52:16.303Z,3.60
2018-01-25T09:53:16.342Z,4.60
2018-01-25T09:54:16.395Z,4.00
2018-01-25T09:55:16.421Z,4.10
2018-01-25T09:56:16.460Z,3.70
2018-01-25T09:57:16.501Z,3.80
2018-01-25T09:58:16.538Z,4.10
2018-01-25T09:59:16.578Z,3.70
2018-01-25T10:00:16.616Z,3.60
2018-01-25T10:01:16.655Z,3.90
2018-01-25T10:02:16.696Z,4.10
2018-01-25T10:03:16.736Z,3.60
2018-01-25T10:04:16.775Z,3.20
2018-01-25T10:05:16.813Z,4.00
2018-01-25T10:06:16.854Z,3.60
2018-01-25T10:07:16.895Z,3.40
2018-01-25T10:08:16.934Z,3.70
2018-01-25T10:09:16.974Z,3.80
2018-01-25T10:10:17.031Z,3.60
2018-01-25T10:11:17.053Z,3.50
2018-01-25T10:12:17.092Z,3.70
2018-01-25T10:13:17.132Z,3.80
2018-01-25T10:14:17.172Z,3.90
2018-01-25T10:15:17.212Z,3.60
2018-01-25T10:16:17.249Z,3.50
2018-01-25T10:17:17.290Z,3.70
2018-01-25T10:18:17.330Z,3.70
2018-01-25T10:19:17.370Z,4.00
2018-01-25T10:20:17.409Z,3.40
2018-01-25T10:21:17.449Z,4.00
2018-01-25T10:22:17.488Z,2.90
2018-01-25T10:23:17.529Z,3.30
2018-01-25T10:24:17.566Z,3.60
2018-01-25T10:25:17.612Z,3.10
2018-01-25T10:26:17.647Z,3.40
2018-01-25T10:27:17.688Z,3.40
2018-01-25T10:28:17.727Z,2.80
2018-01-25T10:29:17.767Z,3.50
2018-01-25T10:30:17.807Z,3.00
2018-01-25T10:31:17.849Z,2.80
2018-01-25T10:32:17.888Z,2.70
2018-01-25T10:33:17.928Z,3.10
2018-01-25T10:34:17.968Z,2.90
2018-01-25T10:35:18.011Z,2.80
2018-01-25T10:36:18.051Z,3.00
2018-01-25T10:37:18.090Z,3.60
2018-01-25T10:38:18.131Z,2.80
2018-01-25T10:39:18.173Z,3.30
2018-01-25T10:40:18.212Z,3.50
2018-01-25T10:41:18.254Z,3.30
2018-01-25T10:42:18.295Z,2.90
2018-01-25T10:43:18.337Z,2.70
2018-01-25T10:44:18.378Z,2.70
2018-01-25T10:45:18.417Z,2.90
2018-01-25T10:46:18.459Z,3.00
2018-01-25T10:47:18.500Z,3.10
2018-01-25T10:48:18.540Z,3.10
2018-01-25T10:49:18.581Z,2.70
2018-01-25T10:50:18.624Z,2.50
2018-01-25T10:51:18.665Z,2.70
2018-01-25T10:52:18.707Z,2.80
2018-01-25T10:53:18.748Z,2.70
2018-01-25T10:54:18.789Z,3.00
2018-01-25T10:55:18.833Z,2.70
2018-01-25T10:56:18.872Z,2.70
2018-01-25T10:57:18.914Z,2.70
2018-01-25T10:58:18.956Z,2.70
2018-01-25T10:59:18.999Z,2.80
2018-01-25T11:00:19.039Z,3.00
2018-01-25T11:01:19.084Z,2.60
2018-01-25T11:02:19.125Z,2.80
2018-01-25T11:03:19.173Z,2.80
2018-01-25T11:04:19.210Z,3.00
2018-01-25T11:05:19.251Z,2.70
2018-01-25T11:06:19.295Z,2.90
2018-01-25T11:07:19.339Z,3.00
2018-01-25T11:08:19.704Z,2.60
2018-01-25T11:09:19.421Z,2.70
2018-01-25T11:10:19.464Z,2.50
2018-01-25T11:11:19.506Z,2.80
2018-01-25T11:12:19.545Z,2.90
2018-01-25T11:13:19.589Z,2.70
2018-01-25T11:14:19.630Z,2.40
2018-01-25T11:15:19.672Z,2.90
2018-01-25T11:16:19.713Z,2.60
2018-01-25T11:17:19.754Z,2.70
2018-01-25T11:18:19.796Z,2.60
2018-01-25T11:19:19.837Z,2.90
2018-01-25T11:20:19.876Z,2.90
2018-01-25T11:21:19.917Z,3.10
2018-01-25T11:22:19.964Z,3.50
2018-01-25T11:23:20.001Z,3.10
2018-01-25T11:24:20.041Z,2.90
2018-01-25T11:25:20.082Z,2.30
2018-01-25T11:26:20.124Z,3.50
2018-01-25T11:27:20.166Z,2.60
2018-01-25T11:28:20.207Z,3.80
2018-01-25T11:29:20.247Z,3.60
2018-01-25T11:30:20.289Z,3.40
2018-01-25T11:31:20.329Z,3.10
2018-01-25T11:32:20.371Z,3.80
2018-01-25T11:33:20.413Z,3.60
2018-01-25T11:34:20.454Z,3.10
2018-01-25T11:35:20.497Z,3.30
2018-01-25T11:36:20.536Z,2.90
2018-01-25T11:37:20.580Z,2.70
2018-01-25T11:38:20.621Z,3.10
2018-01-25T11:39:20.663Z,2.20
2018-01-25T11:40:20.704Z,2.50
2018-01-25T11:41:20.746Z,2.70
2018-01-25T11:42:20.786Z,2.50
2018-01-25T11:43:20.829Z,2.90
2018-01-25T11:44:20.872Z,2.70
2018-01-25T11:45:20.912Z,2.70
2018-01-25T11:46:20.953Z,2.80
2018-01-25T11:47:20.994Z,3.10
2018-01-25T11:48:21.036Z,2.40
2018-01-25T11:49:21.079Z,2.30
2018-01-25T11:50:21.120Z,2.60
2018-01-25T11:51:21.164Z,2.70
2018-01-25T11:52:21.203Z,2.60
2018-01-25T11:53:21.244Z,3.10
2018-01-25T11:54:21.287Z,3.00
2018-01-25T11:55:21.329Z,2.90
2018-01-25T11:56:21.366Z,2.50
2018-01-25T11:57:21.409Z,2.80
2018-01-25T11:58:21.454Z,3.00
2018-01-25T11:59:21.491Z,3.10
2018-01-25T12:00:21.533Z,2.90
2018-01-25T12:01:21.575Z,2.90
2018-01-25T12:02:21.615Z,3.30
2018-01-25T12:03:21.655Z,3.40
2018-01-25T12:04:21.696Z,2.70
2018-01-25T12:05:21.738Z,3.10
2018-01-25T12:06:21.779Z,3.20
2018-01-25T12:07:21.820Z,3.00
2018-01-25T12:08:21.861Z,2.90
2018-01-25T12:09:21.902Z,2.90
2018-01-25T12:10:21.943Z,2.80
2018-01-25T12:11:21.982Z,2.30
2018-01-25T12:12:22.024Z,2.90
2018-01-25T12:13:22.063Z,2.50
2018-01-25T12:14:22.104Z,2.70
2018-01-25T12:15:22.145Z,2.70
2018-01-25T12:16:22.185Z,2.80
2018-01-25T12:17:22.226Z,2.40
2018-01-25T12:18:22.265Z,2.80
2018-01-25T12:19:22.306Z,2.80
2018-01-25T12:20:22.346Z,2.80
2018-01-25T12:21:22.385Z,2.80
2018-01-25T12:22:22.426Z,2.80
2018-01-25T12:23:22.466Z,2.80
2018-01-25T12:24:22.506Z,3.10
2018-01-25T12:25:22.544Z,2.80
2018-01-25T12:26:22.584Z,3.10
2018-01-25T12:27:22.624Z,3.10
2018-01-25T12:28:22.663Z,2.60
2018-01-25T12:29:22.703Z,3.00
2018-01-25T12:30:22.741Z,2.40
2018-01-25T12:31:22.780Z,3.10
2018-01-25T12:32:22.846Z,3.30
2018-01-25T12:33:22.860Z,2.90
2018-01-25T12:34:22.899Z,2.70
2018-01-25T12:35:22.939Z,2.60
2018-01-25T12:36:22.977Z,2.50
2018-01-25T12:37:23.017Z,2.50
2018-01-25T12:38:23.056Z,3.10
2018-01-25T12:39:23.098Z,2.80
2018-01-25T12:40:23.180Z,2.90
2018-01-25T12:41:23.174Z,2.70
2018-01-25T12:42:23.213Z,2.60
2018-01-25T12:43:23.253Z,2.70
2018-01-25T12:44:23.293Z,3.00
2018-01-25T12:45:23.330Z,3.00
2018-01-25T12:46:23.370Z,2.70
2018-01-25T12:47:23.409Z,2.60
2018-01-25T12:48:23.446Z,2.90
2018-01-25T12:49:23.486Z,2.70
2018-01-25T12:50:23.528Z,3.10
2018-01-25T12:51:23.569Z,2.90
2018-01-25T12:52:23.606Z,3.10
2018-01-25T12:53:23.646Z,2.60
2018-01-25T12:54:23.686Z,2.60
2018-01-25T12:55:23.726Z,2.50
2018-01-25T12:56:23.766Z,3.10
2018-01-25T12:57:23.804Z,2.50
2018-01-25T12:58:23.845Z,3.10
2018-01-25T12:59:23.885Z,2.70
2018-01-25T13:00:23.924Z,2.50
2018-01-25T13:01:23.962Z,2.70
2018-01-25T13:02:24.004Z,2.50
2018-01-25T13:03:24.042Z,2.60
2018-01-25T13:04:24.082Z,2.80
2018-01-25T13:05:24.121Z,2.90
2018-01-25T13:06:24.160Z,2.90
2018-01-25T13:07:24.210Z,2.50
2018-01-25T13:08:24.240Z,2.60
2018-01-25T13:09:24.280Z,2.70
2018-01-25T13:10:24.318Z,2.40
2018-01-25T13:11:24.357Z,2.30
2018-01-25T13:12:24.396Z,2.70
2018-01-25T13:13:24.434Z,2.40
2018-01-25T13:14:24.474Z,2.50
2018-01-25T13:15:24.514Z,2.30
2018-01-25T13:16:24.552Z,2.50
2018-01-25T13:17:24.590Z,2.40
2018-01-25T13:18:24.629Z,3.00
2018-01-25T13:19:24.668Z,2.70